Time;durP1;ratioP1;P1;durP2;ratioP2;P2;SDS_P1;SDS_P2;PMS_P1;PMS_P2;Temp;Humidity;BMP_temperature;BMP_pressure;BME280_temperature;BME280_humidity;BME280_pressure;Samples;Min_cycle;Max_cycle;Signal;HPM_P1;HPM_P2
2022/09/28 00:01:53;;;;;;;7.82;1.33;;;;;;;;;;4901904;29;20508;-75
2022/09/28 00:04:19;;;;;;;5.07;1.80;;;;;;;;;;4900609;29;20349;-75
2022/09/28 00:06:46;;;;;;;9.13;1.40;;;;;;;;;;4901857;29;20052;-75
2022/09/28 00:09:12;;;;;;;9.15;1.60;;;;;;;;;;4901472;29;20032;-75
2022/09/28 00:11:39;;;;;;;8.13;1.90;;;;;;;;;;4901446;29;20492;-75
2022/09/28 00:14:06;;;;;;;6.70;1.33;;;;;;;;;;4922039;29;20051;-75
2022/09/28 00:16:37;;;;;;;8.70;1.42;;;;;;;;;;4939151;29;20040;-76
2022/09/28 00:19:05;;;;;;;15.13;1.88;;;;;;;;;;4939315;29;20131;-76
2022/09/28 00:21:32;;;;;;;5.80;1.48;;;;;;;;;;4939397;29;20039;-75
2022/09/28 00:24:11;;;;;;;8.73;1.35;;;;;;;;;;4939613;29;20051;-75
2022/09/28 00:26:39;;;;;;;9.05;1.90;;;;;;;;;;4939093;29;20495;-75
2022/09/28 00:29:05;;;;;;;11.63;1.55;;;;;;;;;;4939121;29;20102;-75
2022/09/28 00:31:32;;;;;;;4.25;1.08;;;;;;;;;;4939256;29;20090;-76
2022/09/28 00:33:59;;;;;;;5.00;1.10;;;;;;;;;;4939421;29;20110;-75
2022/09/28 00:36:27;;;;;;;3.97;1.00;;;;;;;;;;4937992;29;20099;-75
2022/09/28 00:38:55;;;;;;;2.40;1.05;;;;;;;;;;4939048;29;20114;-75
2022/09/28 00:41:22;;;;;;;5.43;1.30;;;;;;;;;;4938747;29;20492;-75
2022/09/28 00:43:48;;;;;;;9.00;1.33;;;;;;;;;;4937406;29;20036;-75
2022/09/28 00:46:14;;;;;;;6.43;1.00;;;;;;;;;;4938661;29;20186;-75
2022/09/28 00:48:50;;;;;;;4.03;1.00;;;;;;;;;;4938899;29;20070;-75
2022/09/28 00:51:18;;;;;;;3.55;1.10;;;;;;;;;;4938925;29;20055;-75
2022/09/28 00:53:44;;;;;;;3.83;0.80;;;;;;;;;;4938609;29;20040;-75
2022/09/28 00:56:17;;;;;;;3.20;0.95;;;;;;;;;;4938426;29;20047;-75
2022/09/28 00:58:46;;;;;;;2.63;0.70;;;;;;;;;;4937953;29;20071;-75
2022/09/28 01:01:12;;;;;;;2.10;0.63;;;;;;;;;;4938366;29;20048;-75
2022/09/28 01:03:44;;;;;;;4.10;0.80;;;;;;;;;;4938392;29;20051;-75
2022/09/28 01:06:12;;;;;;;3.38;0.85;;;;;;;;;;4938920;29;20105;-75
2022/09/28 01:08:39;;;;;;;4.47;0.90;;;;;;;;;;4938147;29;20043;-75
2022/09/28 01:11:05;;;;;;;6.55;0.82;;;;;;;;;;4938733;29;20044;-75
2022/09/28 01:13:32;;;;;;;3.72;0.80;;;;;;;;;;4938248;29;20059;-75
2022/09/28 01:16:06;;;;;;;3.47;0.80;;;;;;;;;;4938129;29;20102;-75
2022/09/28 01:18:32;;;;;;;2.00;0.70;;;;;;;;;;4938337;29;20043;-76
2022/09/28 01:21:12;;;;;;;3.28;0.50;;;;;;;;;;4937348;29;20423;-75
2022/09/28 01:23:57;;;;;;;2.22;0.30;;;;;;;;;;4938064;29;20051;-75
2022/09/28 01:26:26;;;;;;;1.05;0.30;;;;;;;;;;4938250;29;20039;-75
2022/09/28 01:28:54;;;;;;;0.43;0.30;;;;;;;;;;4937760;29;20495;-75
2022/09/28 01:31:21;;;;;;;0.35;0.30;;;;;;;;;;4938160;29;20099;-75
2022/09/28 01:33:53;;;;;;;1.08;0.30;;;;;;;;;;4938037;29;20048;-75
2022/09/28 01:36:25;;;;;;;0.47;0.25;;;;;;;;;;4936553;29;20228;-75
2022/09/28 01:38:56;;;;;;;1.77;0.30;;;;;;;;;;4937752;29;20070;-75
2022/09/28 01:41:24;;;;;;;0.82;0.20;;;;;;;;;;4938605;29;20051;-75
2022/09/28 01:43:55;;;;;;;0.30;0.20;;;;;;;;;;4937884;29;20074;-75
2022/09/28 01:46:43;;;;;;;1.27;0.25;;;;;;;;;;4936360;29;20400;-75
2022/09/28 01:49:16;;;;;;;0.38;0.20;;;;;;;;;;4937345;29;20090;-75
2022/09/28 01:51:47;;;;;;;0.55;0.28;;;;;;;;;;4937990;29;20054;-75
2022/09/28 01:54:13;;;;;;;;;;;;;;;;;;4938358;29;20067;-75
2022/09/28 01:56:46;;;;;;;1.02;0.20;;;;;;;;;;4937748;29;20414;-75
2022/09/28 01:59:14;;;;;;;0.55;0.28;;;;;;;;;;4937576;29;20040;-75
2022/09/28 02:01:43;;;;;;;1.00;0.10;;;;;;;;;;4937730;29;20051;-75
2022/09/28 02:04:17;;;;;;;0.68;0.40;;;;;;;;;;4937628;29;20499;-75
2022/09/28 02:06:49;;;;;;;1.40;0.30;;;;;;;;;;4938281;29;20478;-76
2022/09/28 02:09:33;;;;;;;0.30;0.20;;;;;;;;;;4937772;29;20090;-75
2022/09/28 02:12:02;;;;;;;0.47;0.40;;;;;;;;;;4937677;29;20070;-75
2022/09/28 02:14:30;;;;;;;1.70;0.88;;;;;;;;;;4937255;29;20066;-75
2022/09/28 02:16:56;;;;;;;0.98;0.35;;;;;;;;;;4935930;29;20476;-75
2022/09/28 02:19:27;;;;;;;1.20;0.40;;;;;;;;;;4937243;29;20055;-75
2022/09/28 02:21:53;;;;;;;1.37;0.37;;;;;;;;;;4937235;29;20075;-76
2022/09/28 02:24:23;;;;;;;1.95;0.55;;;;;;;;;;4935948;29;20264;-75
2022/09/28 02:26:50;;;;;;;1.58;0.40;;;;;;;;;;4937450;29;20503;-74
2022/09/28 02:29:17;;;;;;;1.75;0.47;;;;;;;;;;4936697;29;20503;-75
2022/09/28 02:31:43;;;;;;;1.55;0.60;;;;;;;;;;4935816;29;20506;-75
2022/09/28 02:34:09;;;;;;;2.40;0.73;;;;;;;;;;4937167;29;20054;-75
2022/09/28 02:36:35;;;;;;;1.13;0.30;;;;;;;;;;4935770;29;20051;-74
2022/09/28 02:39:01;;;;;;;1.48;0.50;;;;;;;;;;4937290;29;20074;-75
2022/09/28 02:41:37;;;;;;;2.58;0.45;;;;;;;;;;4936790;29;20114;-75
2022/09/28 02:44:03;;;;;;;0.95;0.30;;;;;;;;;;4936737;29;20052;-75
2022/09/28 02:46:33;;;;;;;2.47;0.45;;;;;;;;;;4937005;29;20052;-75
2022/09/28 02:49:23;;;;;;;1.45;0.20;;;;;;;;;;4936840;29;20098;-75
2022/09/28 02:52:04;;;;;;;0.70;0.20;;;;;;;;;;4937311;29;20047;-75
2022/09/28 02:54:45;;;;;;;0.75;0.35;;;;;;;;;;4936784;29;20043;-75
2022/09/28 02:57:23;;;;;;;0.20;0.20;;;;;;;;;;4937415;29;20047;-75
2022/09/28 03:00:09;;;;;;;0.40;0.30;;;;;;;;;;4939248;29;20062;-75
2022/09/28 03:02:41;;;;;;;1.40;0.40;;;;;;;;;;4940572;29;20457;-75
2022/09/28 03:05:07;;;;;;;1.27;0.20;;;;;;;;;;4940793;29;20518;-75
2022/09/28 03:07:39;;;;;;;0.65;0.20;;;;;;;;;;4940491;29;20046;-75
2022/09/28 03:10:12;;;;;;;1.00;0.30;;;;;;;;;;4939177;29;20039;-75
2022/09/28 03:12:38;;;;;;;2.45;0.30;;;;;;;;;;4940252;29;20098;-75
2022/09/28 03:15:25;;;;;;;0.20;0.20;;;;;;;;;;4940635;29;20115;-75
2022/09/28 03:17:51;;;;;;;0.30;0.20;;;;;;;;;;4923299;29;20052;-75
2022/09/28 03:20:17;;;;;;;0.52;0.20;;;;;;;;;;4940601;29;20495;-75
2022/09/28 03:22:43;;;;;;;1.85;0.20;;;;;;;;;;4940526;29;20044;-75
2022/09/28 03:25:10;;;;;;;0.10;0.10;;;;;;;;;;4940480;29;20039;-75
2022/09/28 03:27:36;;;;;;;0.63;0.20;;;;;;;;;;4938962;29;20058;-75
2022/09/28 03:30:03;;;;;;;0.55;0.15;;;;;;;;;;4940088;29;20094;-75
2022/09/28 03:32:29;;;;;;;0.22;0.10;;;;;;;;;;4940934;29;20040;-75
2022/09/28 03:34:55;;;;;;;0.65;0.20;;;;;;;;;;4940016;29;20114;-75
2022/09/28 03:37:21;;;;;;;0.13;0.10;;;;;;;;;;4940144;29;20047;-76
2022/09/28 03:39:47;;;;;;;0.30;0.20;;;;;;;;;;4939925;29;20043;-75
2022/09/28 03:42:14;;;;;;;0.32;0.15;;;;;;;;;;4940155;29;20042;-76
2022/09/28 03:44:40;;;;;;;0.20;0.10;;;;;;;;;;4939937;29;20051;-75
2022/09/28 03:47:09;;;;;;;2.60;0.20;;;;;;;;;;4940054;29;20043;-75
2022/09/28 03:49:35;;;;;;;0.10;0.10;;;;;;;;;;4939778;29;20050;-75
2022/09/28 03:52:02;;;;;;;4.13;0.38;;;;;;;;;;4939890;29;20052;-75
2022/09/28 03:54:28;;;;;;;0.10;0.10;;;;;;;;;;4939993;29;20051;-75
2022/09/28 03:56:54;;;;;;;0.57;0.10;;;;;;;;;;4939573;29;20044;-75
2022/09/28 03:59:20;;;;;;;1.33;0.20;;;;;;;;;;4939689;29;20623;-75
2022/09/28 04:01:50;;;;;;;0.65;0.10;;;;;;;;;;4939521;29;20062;-75
2022/09/28 04:04:16;;;;;;;0.20;0.20;;;;;;;;;;4939276;29;20376;-75
2022/09/28 04:06:42;;;;;;;0.10;0.10;;;;;;;;;;4951977;29;20043;-75
2022/09/28 04:09:09;;;;;;;0.13;0.10;;;;;;;;;;4958693;29;20035;-75
2022/09/28 04:11:35;;;;;;;0.20;0.10;;;;;;;;;;4958375;29;20066;-75
2022/09/28 04:14:01;;;;;;;0.30;0.15;;;;;;;;;;4937801;29;20052;-76
2022/09/28 04:16:27;;;;;;;1.35;0.10;;;;;;;;;;4939728;29;20043;-76
2022/09/28 04:18:53;;;;;;;0.40;0.10;;;;;;;;;;4939200;29;20126;-76
2022/09/28 04:21:20;;;;;;;1.35;0.10;;;;;;;;;;4939122;29;20042;-76
2022/09/28 04:23:47;;;;;;;0.50;0.10;;;;;;;;;;4939399;29;20499;-77
2022/09/28 04:26:18;;;;;;;0.75;0.15;;;;;;;;;;4939053;29;20043;-76
2022/09/28 04:31:29;;;;;;;0.43;0.10;;;;;;;;;;4938512;29;20009;-76
2022/09/28 04:33:58;;;;;;;0.10;0.10;;;;;;;;;;4938583;29;20039;-76
2022/09/28 04:36:25;;;;;;;0.20;0.20;;;;;;;;;;4938758;29;20036;-78
2022/09/28 04:38:52;;;;;;;0.32;0.10;;;;;;;;;;4936748;29;20130;-77
2022/09/28 04:41:18;;;;;;;0.10;0.10;;;;;;;;;;4935935;29;20519;-77
2022/09/28 04:43:46;;;;;;;1.35;0.10;;;;;;;;;;4937635;29;20070;-77
2022/09/28 04:46:12;;;;;;;0.10;0.10;;;;;;;;;;4937802;29;20054;-77
2022/09/28 04:48:38;;;;;;;1.45;0.20;;;;;;;;;;4938118;29;20039;-77
2022/09/28 04:51:04;;;;;;;1.00;0.10;;;;;;;;;;4938647;29;20039;-77
2022/09/28 04:53:31;;;;;;;0.25;0.10;;;;;;;;;;4938766;29;20040;-76
2022/09/28 04:56:08;;;;;;;0.22;0.10;;;;;;;;;;4938218;29;20056;-77
2022/09/28 04:58:35;;;;;;;0.10;0.10;;;;;;;;;;4938431;29;20051;-76
2022/09/28 05:01:02;;;;;;;0.55;0.10;;;;;;;;;;4938089;29;20134;-76
2022/09/28 05:03:28;;;;;;;1.63;0.30;;;;;;;;;;4938464;29;20103;-77
2022/09/28 05:05:54;;;;;;;0.30;0.30;;;;;;;;;;4938024;29;20051;-76
2022/09/28 05:08:20;;;;;;;0.35;0.15;;;;;;;;;;4938248;29;20047;-77
2022/09/28 05:10:47;;;;;;;0.80;0.28;;;;;;;;;;4938241;29;20126;-78
2022/09/28 05:13:13;;;;;;;0.57;0.20;;;;;;;;;;4941513;29;20502;-77
2022/09/28 05:15:41;;;;;;;0.30;0.20;;;;;;;;;;4957858;29;20051;-77
2022/09/28 05:18:07;;;;;;;0.10;0.10;;;;;;;;;;4957577;29;20062;-77
2022/09/28 05:20:34;;;;;;;0.10;0.10;;;;;;;;;;4957532;29;20043;-77
2022/09/28 05:23:00;;;;;;;0.93;0.30;;;;;;;;;;4957390;28;20046;-77
2022/09/28 05:25:26;;;;;;;0.20;0.20;;;;;;;;;;4957471;29;20035;-76
2022/09/28 05:27:56;;;;;;;0.50;0.20;;;;;;;;;;4940015;29;20035;-76
2022/09/28 05:30:22;;;;;;;0.43;0.20;;;;;;;;;;4940289;29;20459;-76
2022/09/28 05:32:49;;;;;;;0.22;0.22;;;;;;;;;;4957356;29;20054;-78
2022/09/28 05:35:16;;;;;;;1.77;0.13;;;;;;;;;;4957421;29;20043;-78
2022/09/28 05:37:42;;;;;;;0.95;0.28;;;;;;;;;;4939521;29;20093;-77
2022/09/28 05:40:09;;;;;;;1.80;0.40;;;;;;;;;;4956261;29;20122;-78
2022/09/28 05:42:35;;;;;;;0.13;0.13;;;;;;;;;;4944459;29;20042;-78
2022/09/28 05:45:02;;;;;;;0.60;0.30;;;;;;;;;;4956082;29;20522;-79
2022/09/28 05:47:28;;;;;;;0.45;0.35;;;;;;;;;;4956391;29;20046;-78
2022/09/28 05:49:55;;;;;;;1.80;0.20;;;;;;;;;;4951610;29;20070;-78
2022/09/28 05:52:21;;;;;;;0.10;0.10;;;;;;;;;;4957078;29;20070;-78
2022/09/28 05:54:48;;;;;;;0.10;0.10;;;;;;;;;;4956935;29;20525;-78
2022/09/28 05:57:14;;;;;;;0.10;0.10;;;;;;;;;;4939531;29;20126;-78
2022/09/28 05:59:40;;;;;;;2.22;0.40;;;;;;;;;;4939448;29;20047;-78
2022/09/28 06:02:06;;;;;;;0.13;0.10;;;;;;;;;;4957026;29;20081;-78
2022/09/28 06:04:33;;;;;;;0.30;0.30;;;;;;;;;;4956870;29;20502;-78
2022/09/28 06:06:59;;;;;;;1.67;0.40;;;;;;;;;;4939488;29;20034;-79
2022/09/28 06:09:25;;;;;;;0.30;0.30;;;;;;;;;;4939492;29;20093;-78
2022/09/28 06:11:51;;;;;;;7.05;0.40;;;;;;;;;;4956392;29;20108;-75
2022/09/28 06:14:18;;;;;;;0.90;0.70;;;;;;;;;;4956117;29;20062;-76
2022/09/28 06:16:44;;;;;;;0.30;0.30;;;;;;;;;;4956117;29;20082;-75
2022/09/28 06:19:11;;;;;;;0.40;0.32;;;;;;;;;;4956211;29;20138;-76
2022/09/28 06:21:38;;;;;;;1.00;0.40;;;;;;;;;;4956066;29;20110;-75
2022/09/28 06:24:04;;;;;;;1.95;0.70;;;;;;;;;;4956202;29;20046;-75
2022/09/28 06:26:30;;;;;;;1.75;0.50;;;;;;;;;;4956340;29;20139;-76
2022/09/28 06:28:59;;;;;;;0.43;0.40;;;;;;;;;;4955833;29;20042;-75
2022/09/28 06:31:25;;;;;;;0.65;0.40;;;;;;;;;;4956011;29;20071;-75
2022/09/28 06:33:51;;;;;;;0.82;0.30;;;;;;;;;;4956975;28;20051;-75
2022/09/28 06:36:18;;;;;;;0.30;0.30;;;;;;;;;;4960156;29;20055;-75
2022/09/28 06:38:44;;;;;;;1.75;0.40;;;;;;;;;;4960206;29;20129;-75
2022/09/28 06:41:11;;;;;;;1.20;0.20;;;;;;;;;;4959860;29;20098;-75
2022/09/28 06:43:40;;;;;;;0.20;0.10;;;;;;;;;;4960249;29;20062;-75
2022/09/28 06:46:08;;;;;;;0.15;0.10;;;;;;;;;;4960037;29;20051;-76
2022/09/28 06:48:35;;;;;;;0.52;0.30;;;;;;;;;;4959680;29;20038;-75
2022/09/28 06:51:01;;;;;;;0.28;0.20;;;;;;;;;;4959665;29;20039;-75
2022/09/28 06:53:28;;;;;;;2.22;0.20;;;;;;;;;;4959963;29;20130;-75
2022/09/28 06:55:55;;;;;;;1.48;0.20;;;;;;;;;;4960115;29;20047;-75
2022/09/28 06:58:22;;;;;;;0.47;0.40;;;;;;;;;;4959668;29;20043;-76
2022/09/28 07:00:49;;;;;;;0.25;0.20;;;;;;;;;;4959808;29;20039;-75
2022/09/28 07:03:16;;;;;;;1.05;0.40;;;;;;;;;;4960175;29;20039;-76
2022/09/28 07:05:44;;;;;;;0.28;0.20;;;;;;;;;;4959702;29;20043;-76
2022/09/28 07:08:10;;;;;;;0.35;0.30;;;;;;;;;;4959660;29;20121;-75
2022/09/28 07:10:40;;;;;;;0.68;0.20;;;;;;;;;;4959604;29;20042;-75
2022/09/28 07:13:06;;;;;;;0.30;0.20;;;;;;;;;;4959203;29;20094;-75
2022/09/28 07:15:33;;;;;;;1.02;0.35;;;;;;;;;;4960033;29;20043;-75
2022/09/28 07:18:04;;;;;;;0.20;0.20;;;;;;;;;;4959202;29;20094;-75
2022/09/28 07:20:31;;;;;;;0.98;0.20;;;;;;;;;;4942996;29;20035;-75
2022/09/28 07:22:58;;;;;;;0.20;0.20;;;;;;;;;;4959872;29;20495;-76
2022/09/28 07:25:24;;;;;;;0.10;0.10;;;;;;;;;;4959333;29;20032;-75
2022/09/28 07:27:51;;;;;;;2.85;0.30;;;;;;;;;;4959035;29;20133;-75
2022/09/28 07:30:17;;;;;;;0.50;0.30;;;;;;;;;;4958984;29;20495;-76
2022/09/28 07:32:45;;;;;;;0.22;0.20;;;;;;;;;;4959447;29;20039;-75
2022/09/28 07:35:11;;;;;;;0.30;0.20;;;;;;;;;;4959440;29;20031;-76
2022/09/28 07:37:37;;;;;;;1.42;0.17;;;;;;;;;;4959093;29;20051;-75
2022/09/28 07:42:49;;;;;;;0.30;0.20;;;;;;;;;;4958397;29;20125;-75
2022/09/28 07:45:15;;;;;;;1.85;0.28;;;;;;;;;;4962146;28;20039;-75
2022/09/28 07:47:41;;;;;;;0.73;0.20;;;;;;;;;;4963684;28;20070;-75
2022/09/28 07:50:08;;;;;;;0.22;0.20;;;;;;;;;;4964956;28;20031;-76
2022/09/28 07:52:35;;;;;;;0.75;0.30;;;;;;;;;;4973542;28;20039;-74
2022/09/28 07:55:03;;;;;;;0.47;0.20;;;;;;;;;;4958706;29;20047;-75
2022/09/28 07:57:33;;;;;;;1.65;0.20;;;;;;;;;;4958535;29;20554;-75
2022/09/28 08:00:01;;;;;;;0.57;0.30;;;;;;;;;;4957469;29;20039;-76
2022/09/28 08:02:27;;;;;;;1.13;0.52;;;;;;;;;;4958793;28;20046;-76
2022/09/28 08:04:53;;;;;;;2.38;0.65;;;;;;;;;;4958349;29;20069;-75
2022/09/28 08:07:21;;;;;;;1.42;0.80;;;;;;;;;;4958448;29;20058;-75
2022/09/28 08:09:48;;;;;;;2.60;0.77;;;;;;;;;;4957277;29;20061;-75
2022/09/28 08:12:14;;;;;;;3.67;0.60;;;;;;;;;;4957837;29;20185;-75
2022/09/28 08:14:40;;;;;;;1.80;0.80;;;;;;;;;;4957263;29;20125;-75
2022/09/28 08:17:06;;;;;;;2.55;0.70;;;;;;;;;;4958930;29;20039;-75
2022/09/28 08:22:18;;;;;;;3.95;0.93;;;;;;;;;;4958080;29;20090;-75
2022/09/28 08:24:45;;;;;;;1.05;0.70;;;;;;;;;;4958543;29;20086;-75
2022/09/28 08:27:11;;;;;;;3.83;0.90;;;;;;;;;;4957968;29;20047;-75
2022/09/28 08:29:38;;;;;;;2.03;0.90;;;;;;;;;;4957823;29;20067;-76
2022/09/28 08:32:06;;;;;;;1.23;0.65;;;;;;;;;;4958785;29;20538;-76
2022/09/28 08:34:33;;;;;;;2.38;0.98;;;;;;;;;;4972569;28;20039;-75
2022/09/28 08:36:59;;;;;;;4.28;0.88;;;;;;;;;;4956611;29;20055;-75
2022/09/28 08:39:26;;;;;;;1.92;0.70;;;;;;;;;;4957030;29;20054;-77
2022/09/28 08:41:55;;;;;;;3.65;1.05;;;;;;;;;;4972128;28;20106;-72
2022/09/28 08:44:23;;;;;;;2.33;0.82;;;;;;;;;;4957849;29;20043;-72
2022/09/28 08:46:53;;;;;;;3.20;0.88;;;;;;;;;;4957932;29;20043;-72
2022/09/28 08:49:19;;;;;;;1.52;0.88;;;;;;;;;;4958001;29;20035;-72
2022/09/28 08:51:50;;;;;;;3.45;1.23;;;;;;;;;;4958040;29;20035;-72
2022/09/28 08:54:22;;;;;;;2.97;1.17;;;;;;;;;;4957946;29;20046;-72
2022/09/28 08:56:49;;;;;;;2.90;0.88;;;;;;;;;;4956743;28;20459;-72
2022/09/28 08:59:20;;;;;;;4.15;0.90;;;;;;;;;;4957189;29;20038;-72
2022/09/28 09:01:53;;;;;;;3.40;1.20;;;;;;;;;;4957345;29;20047;-73
2022/09/28 09:04:19;;;;;;;4.32;1.00;;;;;;;;;;4957707;29;20122;-73
2022/09/28 09:06:45;;;;;;;2.22;0.70;;;;;;;;;;4957670;29;20051;-72
2022/09/28 09:09:46;;;;;;;1.92;0.80;;;;;;;;;;4957440;29;20043;-72
2022/09/28 09:12:32;;;;;;;4.97;0.60;;;;;;;;;;4916745;29;20127;-72
2022/09/28 09:15:01;;;;;;;2.25;0.80;;;;;;;;;;4954553;29;20165;-72
2022/09/28 09:17:36;;;;;;;2.85;0.90;;;;;;;;;;4957448;29;20042;-72
2022/09/28 09:20:10;;;;;;;3.42;0.98;;;;;;;;;;4958048;29;20054;-73
2022/09/28 09:22:40;;;;;;;2.67;0.68;;;;;;;;;;4957549;29;20043;-72
2022/09/28 09:25:25;;;;;;;2.95;0.93;;;;;;;;;;4957497;29;20038;-72
2022/09/28 09:27:52;;;;;;;2.63;0.95;;;;;;;;;;4957296;29;20039;-72
2022/09/28 09:30:21;;;;;;;3.05;0.68;;;;;;;;;;4958098;29;20066;-72
2022/09/28 09:33:03;;;;;;;4.82;0.75;;;;;;;;;;4957049;29;20119;-73
2022/09/28 09:35:29;;;;;;;4.25;1.33;;;;;;;;;;4957157;29;20035;-73
2022/09/28 09:38:21;;;;;;;4.07;0.90;;;;;;;;;;4957706;29;20054;-73
2022/09/28 09:40:47;;;;;;;1.77;0.70;;;;;;;;;;4941603;29;20039;-73
2022/09/28 09:43:26;;;;;;;1.08;0.60;;;;;;;;;;4957039;29;20499;-71
2022/09/28 09:45:55;;;;;;;1.63;0.70;;;;;;;;;;4957175;29;20054;-72
2022/09/28 09:48:25;;;;;;;1.23;0.73;;;;;;;;;;4956485;29;20073;-72
2022/09/28 09:50:54;;;;;;;3.03;1.10;;;;;;;;;;4956671;29;20042;-72
2022/09/28 09:53:30;;;;;;;1.95;0.65;;;;;;;;;;4956867;29;20552;-72
2022/09/28 09:56:00;;;;;;;2.47;0.65;;;;;;;;;;4956554;29;20070;-72
2022/09/28 09:58:38;;;;;;;1.33;0.90;;;;;;;;;;4957142;29;20051;-72
2022/09/28 10:01:11;;;;;;;2.28;0.60;;;;;;;;;;4957019;29;20259;-72
2022/09/28 10:03:40;;;;;;;3.30;0.63;;;;;;;;;;4956791;29;20094;-72
2022/09/28 10:06:08;;;;;;;1.65;0.40;;;;;;;;;;4957132;29;20047;-72
2022/09/28 10:08:37;;;;;;;2.42;0.60;;;;;;;;;;4956306;28;20117;-72
2022/09/28 10:11:26;;;;;;;2.00;0.70;;;;;;;;;;4956806;29;20046;-72
2022/09/28 10:13:54;;;;;;;3.80;0.80;;;;;;;;;;4956901;29;20081;-72
2022/09/28 10:16:20;;;;;;;1.23;0.52;;;;;;;;;;4956601;29;20047;-73
2022/09/28 10:18:48;;;;;;;1.77;0.50;;;;;;;;;;4956489;29;20047;-72
2022/09/28 10:21:15;;;;;;;3.38;0.63;;;;;;;;;;4956341;29;20442;-72
2022/09/28 10:23:42;;;;;;;1.27;0.65;;;;;;;;;;4956842;29;20047;-71
2022/09/28 10:26:23;;;;;;;4.05;1.38;;;;;;;;;;4942601;29;20523;-71
2022/09/28 10:29:00;;;;;;;1.77;0.80;;;;;;;;;;4937008;29;20040;-72
2022/09/28 10:31:35;;;;;;;3.65;0.98;;;;;;;;;;4936376;29;20035;-72
2022/09/28 10:34:02;;;;;;;1.77;1.25;;;;;;;;;;4936811;29;20048;-71
2022/09/28 10:36:28;;;;;;;1.67;0.70;;;;;;;;;;4936806;29;20128;-72
2022/09/28 10:38:55;;;;;;;2.42;1.17;;;;;;;;;;4936210;29;20052;-71
2022/09/28 10:41:21;;;;;;;4.25;1.05;;;;;;;;;;4936240;29;20043;-71
2022/09/28 10:44:07;;;;;;;2.85;1.10;;;;;;;;;;4935943;29;20055;-71
2022/09/28 10:46:34;;;;;;;2.55;1.10;;;;;;;;;;4936813;29;20051;-72
2022/09/28 10:49:02;;;;;;;4.38;1.23;;;;;;;;;;4938197;29;20134;-72
2022/09/28 10:51:40;;;;;;;2.38;1.17;;;;;;;;;;4955210;29;20043;-71
2022/09/28 10:54:13;;;;;;;2.40;1.00;;;;;;;;;;4955066;29;20557;-72
2022/09/28 10:56:40;;;;;;;2.00;0.95;;;;;;;;;;4955312;29;20055;-72
2022/09/28 10:59:25;;;;;;;4.85;1.23;;;;;;;;;;4956009;29;20181;-72
2022/09/28 11:02:09;;;;;;;3.67;1.00;;;;;;;;;;4954852;29;20150;-73
2022/09/28 11:04:39;;;;;;;3.10;1.02;;;;;;;;;;4953599;28;20047;-72
2022/09/28 11:07:14;;;;;;;2.90;1.00;;;;;;;;;;4972955;28;20045;-72
2022/09/28 11:09:41;;;;;;;3.97;1.13;;;;;;;;;;4956077;28;20039;-72
2022/09/28 11:12:13;;;;;;;1.88;0.80;;;;;;;;;;4960613;28;20051;-72
2022/09/28 11:14:42;;;;;;;3.38;0.95;;;;;;;;;;4955180;29;20055;-72
2022/09/28 11:17:16;;;;;;;3.28;0.80;;;;;;;;;;4955744;28;20050;-73
2022/09/28 11:19:42;;;;;;;1.33;0.65;;;;;;;;;;4956658;28;20043;-72
2022/09/28 11:22:20;;;;;;;2.22;1.00;;;;;;;;;;4959473;29;20050;-72
2022/09/28 11:24:49;;;;;;;2.30;0.52;;;;;;;;;;4959675;29;20053;-72
2022/09/28 11:27:26;;;;;;;1.13;0.70;;;;;;;;;;4959416;29;20070;-72
2022/09/28 11:29:58;;;;;;;3.42;0.80;;;;;;;;;;4959007;29;20051;-72
2022/09/28 11:32:26;;;;;;;2.40;0.73;;;;;;;;;;4959182;28;20047;-72
2022/09/28 11:34:52;;;;;;;1.05;0.55;;;;;;;;;;4959194;29;20050;-72
2022/09/28 11:37:30;;;;;;;1.58;0.60;;;;;;;;;;4959615;29;20039;-74
2022/09/28 11:40:15;;;;;;;5.07;0.80;;;;;;;;;;4959201;29;20043;-72
2022/09/28 11:43:07;;;;;;;2.78;1.13;;;;;;;;;;4959588;29;20094;-72
2022/09/28 11:45:52;;;;;;;2.47;0.80;;;;;;;;;;4945596;28;20050;-72
2022/09/28 11:48:22;;;;;;;2.10;0.82;;;;;;;;;;4962858;28;20042;-72
2022/09/28 11:50:51;;;;;;;3.65;0.98;;;;;;;;;;4973335;28;20038;-72
2022/09/28 11:53:22;;;;;;;7.13;0.80;;;;;;;;;;4976551;28;20065;-72
2022/09/28 11:56:15;;;;;;;1.02;0.60;;;;;;;;;;4958606;28;20051;-72
2022/09/28 11:58:49;;;;;;;1.77;0.70;;;;;;;;;;4967127;28;20054;-72
2022/09/28 12:01:24;;;;;;;3.70;0.82;;;;;;;;;;4971631;28;20066;-71
2022/09/28 12:03:56;;;;;;;3.55;0.60;;;;;;;;;;4963473;28;20051;-70
2022/09/28 12:06:37;;;;;;;4.20;0.75;;;;;;;;;;4967549;28;20047;-72
2022/09/28 12:09:08;;;;;;;1.98;0.90;;;;;;;;;;4970588;28;20518;-70
2022/09/28 12:11:42;;;;;;;1.33;0.73;;;;;;;;;;4962707;28;20043;-71
2022/09/28 12:14:14;;;;;;;1.55;0.77;;;;;;;;;;4958002;28;20055;-72
2022/09/28 12:16:53;;;;;;;1.05;0.30;;;;;;;;;;4960005;28;20058;-70
2022/09/28 12:19:28;;;;;;;0.65;0.40;;;;;;;;;;4958867;28;20055;-69
2022/09/28 12:22:00;;;;;;;0.60;0.30;;;;;;;;;;4957841;28;20086;-72
2022/09/28 12:24:26;;;;;;;1.45;0.45;;;;;;;;;;4957749;28;20046;-73
2022/09/28 12:27:04;;;;;;;1.00;0.35;;;;;;;;;;4971573;28;20043;-72
2022/09/28 12:30:00;;;;;;;0.22;0.22;;;;;;;;;;4959399;28;20434;-69
2022/09/28 12:32:34;;;;;;;2.15;0.50;;;;;;;;;;4939304;29;20035;-71
2022/09/28 12:35:00;;;;;;;1.35;0.40;;;;;;;;;;4956767;29;20043;-70
2022/09/28 12:37:26;;;;;;;0.50;0.30;;;;;;;;;;4957423;29;20039;-71
2022/09/28 12:39:57;;;;;;;0.85;0.20;;;;;;;;;;4957640;29;20078;-72
2022/09/28 12:42:44;;;;;;;0.68;0.40;;;;;;;;;;4957753;29;20071;-72
2022/09/28 12:45:16;;;;;;;0.80;0.40;;;;;;;;;;4918725;29;20130;-72
2022/09/28 12:48:02;;;;;;;2.97;0.70;;;;;;;;;;4957821;29;20126;-72
2022/09/28 12:50:32;;;;;;;0.73;0.43;;;;;;;;;;4957770;29;20078;-72
2022/09/28 12:53:18;;;;;;;2.50;0.65;;;;;;;;;;4957973;29;20074;-75
2022/09/28 12:55:55;;;;;;;3.47;0.93;;;;;;;;;;4957357;29;20036;-78
2022/09/28 12:58:35;;;;;;;1.40;0.73;;;;;;;;;;4955566;29;20058;-78
2022/09/28 13:01:01;;;;;;;3.72;0.82;;;;;;;;;;4948874;29;20123;-79
2022/09/28 13:03:30;;;;;;;4.85;0.93;;;;;;;;;;4938677;29;20479;-79
2022/09/28 13:06:17;;;;;;;2.75;0.82;;;;;;;;;;4938363;29;20043;-79
2022/09/28 13:09:03;;;;;;;3.13;0.88;;;;;;;;;;4938371;29;20043;-79
2022/09/28 13:11:44;;;;;;;3.95;0.70;;;;;;;;;;4942960;29;20043;-79
2022/09/28 13:14:31;;;;;;;2.13;0.57;;;;;;;;;;4938007;29;20130;-80
2022/09/28 13:17:01;;;;;;;1.27;0.52;;;;;;;;;;4947801;29;20044;-79
2022/09/28 13:19:40;;;;;;;2.78;1.10;;;;;;;;;;4938042;29;20134;-79
2022/09/28 13:22:09;;;;;;;1.92;0.65;;;;;;;;;;4938732;29;20068;-80
2022/09/28 13:24:38;;;;;;;5.97;1.00;;;;;;;;;;4921010;29;20066;-80
2022/09/28 13:27:12;;;;;;;3.90;0.98;;;;;;;;;;4920843;29;20039;-79
2022/09/28 13:29:38;;;;;;;3.17;1.10;;;;;;;;;;4920792;29;20103;-79
2022/09/28 13:32:08;;;;;;;3.08;0.95;;;;;;;;;;4938311;29;20036;-80
2022/09/28 13:34:36;;;;;;;2.63;0.80;;;;;;;;;;4937838;29;20048;-80
2022/09/28 13:37:19;;;;;;;3.10;0.70;;;;;;;;;;4920655;29;20127;-79
2022/09/28 13:39:45;;;;;;;2.50;0.90;;;;;;;;;;4920711;29;20522;-79
2022/09/28 13:42:22;;;;;;;2.85;0.70;;;;;;;;;;4904404;29;20111;-79
2022/09/28 13:44:54;;;;;;;1.73;0.85;;;;;;;;;;4937668;29;20048;-79
2022/09/28 13:47:37;;;;;;;3.47;0.70;;;;;;;;;;4937357;29;20193;-78
2022/09/28 13:50:15;;;;;;;2.80;0.80;;;;;;;;;;4920240;29;20051;-79
2022/09/28 13:52:46;;;;;;;0.95;0.50;;;;;;;;;;4937908;29;20048;-78
2022/09/28 13:55:33;;;;;;;1.92;1.05;;;;;;;;;;4949746;28;20043;-77
2022/09/28 13:57:59;;;;;;;1.55;0.63;;;;;;;;;;4902370;29;20044;-78
2022/09/28 14:00:38;;;;;;;2.72;0.77;;;;;;;;;;4945352;28;20041;-78
2022/09/28 14:03:20;;;;;;;1.30;0.60;;;;;;;;;;4969381;28;20042;-78
2022/09/28 14:05:50;;;;;;;1.98;0.60;;;;;;;;;;4957066;28;20125;-79
2022/09/28 14:08:37;;;;;;;2.08;0.77;;;;;;;;;;4961196;28;20113;-78
2022/09/28 14:11:23;;;;;;;2.40;0.68;;;;;;;;;;4965619;28;20581;-78
2022/09/28 14:14:02;;;;;;;1.75;0.63;;;;;;;;;;4971631;28;20058;-79
2022/09/28 14:16:32;;;;;;;0.77;0.52;;;;;;;;;;4950992;28;20062;-78
2022/09/28 14:18:58;;;;;;;0.55;0.40;;;;;;;;;;4948640;29;20118;-76
2022/09/28 14:21:43;;;;;;;1.08;0.40;;;;;;;;;;4953800;28;20051;-74
2022/09/28 14:24:32;;;;;;;2.25;0.40;;;;;;;;;;4964100;28;20083;-72
2022/09/28 14:28:01;;;;;;;0.32;0.32;;;;;;;;;;5078710;27;2020272;-73
2022/09/28 14:30:34;;;;;;;0.85;0.40;;;;;;;;;;5120995;28;20505;-73
2022/09/28 14:33:12;;;;;;;2.70;0.40;;;;;;;;;;5132284;28;20043;-72
2022/09/28 14:35:42;;;;;;;0.50;0.40;;;;;;;;;;5132468;28;20409;-72
2022/09/28 14:41:14;;;;;;;0.40;0.40;;;;;;;;;;5112032;28;20081;-72
2022/09/28 14:43:43;;;;;;;2.00;0.47;;;;;;;;;;5114626;28;20094;-72
2022/09/28 14:46:10;;;;;;;0.80;0.30;;;;;;;;;;5131892;28;20044;-72
2022/09/28 14:48:49;;;;;;;2.08;0.70;;;;;;;;;;5132235;27;20040;-72
2022/09/28 14:51:25;;;;;;;0.57;0.40;;;;;;;;;;5130119;27;20118;-73
2022/09/28 14:53:52;;;;;;;1.77;0.50;;;;;;;;;;5130675;28;20498;-73
2022/09/28 14:56:19;;;;;;;0.98;0.50;;;;;;;;;;5131732;28;20043;-73
2022/09/28 14:58:46;;;;;;;1.88;0.68;;;;;;;;;;5130279;28;20039;-73
2022/09/28 15:01:19;;;;;;;0.22;0.22;;;;;;;;;;5131361;28;20043;-74
2022/09/28 15:03:46;;;;;;;2.17;0.50;;;;;;;;;;5131128;28;20043;-73
2022/09/28 15:06:17;;;;;;;1.40;0.50;;;;;;;;;;5131162;28;20080;-73
2022/09/28 15:08:43;;;;;;;3.90;0.70;;;;;;;;;;5131681;27;20039;-73
2022/09/28 15:11:17;;;;;;;2.95;0.70;;;;;;;;;;5131275;28;20040;-73
2022/09/28 15:13:43;;;;;;;3.03;0.77;;;;;;;;;;5131323;28;20111;-73
2022/09/28 15:16:12;;;;;;;3.15;0.80;;;;;;;;;;5123312;28;20043;-71